sensor_id;sensor_type;location;lat;lon;timestamp;temperature;humidity
44447;DHT22;30152;52.066;5.358;2022-07-04T09:59:52;19.30;99.90
44447;DHT22;30152;52.066;5.358;2022-07-04T10:02:17;19.60;99.90
44447;DHT22;30152;52.066;5.358;2022-07-04T10:04:49;20.20;99.90
44447;DHT22;30152;52.066;5.358;2022-07-04T10:07:30;19.80;99.90
44447;DHT22;30152;52.066;5.358;2022-07-04T10:09:56;19.60;99.90
44447;DHT22;30152;52.066;5.358;2022-07-04T10:12:27;20.40;99.90
44447;DHT22;30152;52.066;5.358;2022-07-04T10:14:54;20.60;99.90
44447;DHT22;30152;52.066;5.358;2022-07-04T10:17:21;19.90;99.90
44447;DHT22;30152;52.066;5.358;2022-07-04T10:19:47;20.40;99.90
44447;DHT22;30152;52.066;5.358;2022-07-04T10:22:13;19.50;99.90
44447;DHT22;30152;52.066;5.358;2022-07-04T10:24:39;19.30;99.90
44447;DHT22;30152;52.066;5.358;2022-07-04T10:29:31;19.60;99.90
44447;DHT22;30152;52.066;5.358;2022-07-04T10:34:22;20.00;99.80
44447;DHT22;30152;52.066;5.358;2022-07-04T10:36:51;20.20;99.90
44447;DHT22;30152;52.066;5.358;2022-07-04T10:39:27;20.20;99.90
44447;DHT22;30152;52.066;5.358;2022-07-04T10:41:57;21.20;99.90
44447;DHT22;30152;52.066;5.358;2022-07-04T10:44:27;20.50;99.90
44447;DHT22;30152;52.066;5.358;2022-07-04T10:47:00;20.20;99.90
44447;DHT22;30152;52.066;5.358;2022-07-04T10:49:27;20.50;99.90
44447;DHT22;30152;52.066;5.358;2022-07-04T10:52:08;20.50;99.70
44447;DHT22;30152;52.066;5.358;2022-07-04T10:54:36;21.10;97.80
44447;DHT22;30152;52.066;5.358;2022-07-04T10:57:18;21.40;97.00
44447;DHT22;30152;52.066;5.358;2022-07-04T15:16:43;24.40;82.40
44447;DHT22;30152;52.066;5.358;2022-07-04T15:26:47;23.60;84.00
44447;DHT22;30152;52.066;5.358;2022-07-04T15:31:43;23.90;83.20
44447;DHT22;30152;52.066;5.358;2022-07-04T15:36:36;24.30;80.40
44447;DHT22;30152;52.066;5.358;2022-07-04T15:39:07;24.70;82.50
44447;DHT22;30152;52.066;5.358;2022-07-04T15:41:36;23.80;81.50
44447;DHT22;30152;52.066;5.358;2022-07-04T15:44:02;24.80;79.90
44447;DHT22;30152;52.066;5.358;2022-07-04T15:46:29;24.70;80.90
44447;DHT22;30152;52.066;5.358;2022-07-04T15:53:46;23.20;87.20
44447;DHT22;30152;52.066;5.358;2022-07-04T15:56:12;22.60;86.50
44447;DHT22;30152;52.066;5.358;2022-07-04T15:58:37;23.40;86.40
44447;DHT22;30152;52.066;5.358;2022-07-04T16:01:03;21.90;85.60
44447;DHT22;30152;52.066;5.358;2022-07-04T16:03:29;22.50;87.20
44447;DHT22;30152;52.066;5.358;2022-07-04T16:08:21;23.40;86.20
44447;DHT22;30152;52.066;5.358;2022-07-04T16:10:46;23.20;86.50
44447;DHT22;30152;52.066;5.358;2022-07-04T16:15:39;23.00;85.60
44447;DHT22;30152;52.066;5.358;2022-07-04T16:20:31;22.90;85.00
44447;DHT22;30152;52.066;5.358;2022-07-04T16:27:48;22.70;87.30
44447;DHT22;30152;52.066;5.358;2022-07-04T16:30:14;22.40;86.40
44447;DHT22;30152;52.066;5.358;2022-07-04T16:32:39;22.70;87.60
44447;DHT22;30152;52.066;5.358;2022-07-04T16:35:06;22.70;88.00
44447;DHT22;30152;52.066;5.358;2022-07-04T16:37:32;22.90;88.60
44447;DHT22;30152;52.066;5.358;2022-07-04T16:39:58;22.50;88.60
44447;DHT22;30152;52.066;5.358;2022-07-04T16:42:23;22.20;88.80
44447;DHT22;30152;52.066;5.358;2022-07-04T16:44:49;22.90;88.80
44447;DHT22;30152;52.066;5.358;2022-07-04T16:47:15;22.00;90.10
44447;DHT22;30152;52.066;5.358;2022-07-04T16:49:41;22.30;89.80
44447;DHT22;30152;52.066;5.358;2022-07-04T16:52:06;22.00;90.20
44447;DHT22;30152;52.066;5.358;2022-07-04T16:54:32;21.90;90.60
44447;DHT22;30152;52.066;5.358;2022-07-04T16:56:58;22.20;90.40
44447;DHT22;30152;52.066;5.358;2022-07-04T17:06:42;22.20;89.10
44447;DHT22;30152;52.066;5.358;2022-07-04T17:09:07;21.80;90.70
44447;DHT22;30152;52.066;5.358;2022-07-04T17:13:59;22.50;90.90
44447;DHT22;30152;52.066;5.358;2022-07-04T17:16:27;21.80;90.70
44447;DHT22;30152;52.066;5.358;2022-07-04T17:21:19;22.50;91.80
44447;DHT22;30152;52.066;5.358;2022-07-04T17:28:36;21.70;91.50
44447;DHT22;30152;52.066;5.358;2022-07-04T17:40:46;21.30;92.20
